createdAt,value
2024-01-19T00:00:19.147Z,3.13
2024-01-19T00:02:47.608Z,3.28
2024-01-19T00:05:15.897Z,2.80
2024-01-19T00:07:46.203Z,3.30
2024-01-19T00:10:14.511Z,3.35
2024-01-19T00:12:43.125Z,2.78
2024-01-19T00:15:12.302Z,3.38
2024-01-19T00:17:41.702Z,3.05
2024-01-19T00:20:12.121Z,3.33
2024-01-19T00:22:40.129Z,2.83
2024-01-19T00:25:11.566Z,3.47
2024-01-19T00:27:39.739Z,3.28
2024-01-19T00:30:08.807Z,3.15
2024-01-19T00:32:36.974Z,3.10
2024-01-19T00:35:05.859Z,3.63
2024-01-19T00:37:34.057Z,3.50
2024-01-19T00:40:02.136Z,3.10
2024-01-19T00:42:32.064Z,3.10
2024-01-19T00:45:00.565Z,2.63
2024-01-19T00:47:31.287Z,2.90
2024-01-19T00:49:59.882Z,3.15
2024-01-19T00:52:28.535Z,2.85
2024-01-19T00:54:56.818Z,2.90
2024-01-19T00:57:25.044Z,2.92
2024-01-19T00:59:56.887Z,2.90
2024-01-19T01:02:28.441Z,3.35
2024-01-19T01:04:59.351Z,2.80
2024-01-19T01:07:27.545Z,3.03
2024-01-19T01:09:55.667Z,3.10
2024-01-19T01:12:24.559Z,2.45
2024-01-19T01:14:55.268Z,2.90
2024-01-19T01:17:23.768Z,2.65
2024-01-19T01:19:51.939Z,2.97
2024-01-19T01:22:20.082Z,2.92
2024-01-19T01:24:48.629Z,3.03
2024-01-19T01:27:17.864Z,3.15
2024-01-19T01:29:47.137Z,3.60
2024-01-19T01:32:19.179Z,3.13
2024-01-19T01:34:47.346Z,2.70
2024-01-19T01:37:15.836Z,3.10
2024-01-19T01:39:44.474Z,2.83
2024-01-19T01:42:12.751Z,2.72
2024-01-19T01:44:43.351Z,2.80
2024-01-19T01:47:11.453Z,2.72
2024-01-19T01:49:41.712Z,2.53
2024-01-19T01:52:10.643Z,1.95
2024-01-19T01:54:39.554Z,2.53
2024-01-19T01:57:08.248Z,2.50
2024-01-19T01:59:36.827Z,2.20
2024-01-19T02:02:07.348Z,2.20
2024-01-19T02:04:36.765Z,2.10
2024-01-19T02:07:07.041Z,2.53
2024-01-19T02:09:38.905Z,2.20
2024-01-19T02:12:08.697Z,2.13
2024-01-19T02:14:36.793Z,2.20
2024-01-19T02:17:05.033Z,2.20
2024-01-19T02:19:36.656Z,2.20
2024-01-19T02:22:06.971Z,2.30
2024-01-19T02:24:37.604Z,2.15
2024-01-19T02:27:09.267Z,1.70
2024-01-19T02:29:39.888Z,2.42
2024-01-19T02:32:08.063Z,1.98
2024-01-19T02:34:36.176Z,2.10
2024-01-19T02:37:04.281Z,2.45
2024-01-19T02:39:32.559Z,1.90
2024-01-19T02:42:03.860Z,1.90
2024-01-19T02:44:32.894Z,1.80
2024-01-19T02:47:01.148Z,2.05
2024-01-19T02:49:31.913Z,1.90
2024-01-19T02:52:00.007Z,1.90
2024-01-19T02:54:28.194Z,2.13
2024-01-19T02:56:56.688Z,1.98
2024-01-19T02:59:26.270Z,1.73
2024-01-19T03:01:55.066Z,2.13
2024-01-19T03:04:24.651Z,2.00
2024-01-19T03:06:54.973Z,1.90
2024-01-19T03:09:23.169Z,2.35
2024-01-19T03:11:51.265Z,2.80
2024-01-19T03:14:19.482Z,2.40
2024-01-19T03:16:49.153Z,2.20
2024-01-19T03:19:19.669Z,2.20
2024-01-19T03:21:47.935Z,2.20
2024-01-19T03:24:16.224Z,2.83
2024-01-19T03:26:44.328Z,2.72
2024-01-19T03:29:12.396Z,2.33
2024-01-19T03:31:40.740Z,2.60
2024-01-19T03:34:10.290Z,2.40
2024-01-19T03:36:38.778Z,2.83
2024-01-19T03:39:08.216Z,2.83
2024-01-19T03:41:36.462Z,2.53
2024-01-19T03:44:04.604Z,2.58
2024-01-19T03:46:33.005Z,2.53
2024-01-19T03:49:01.228Z,3.17
2024-01-19T03:51:30.889Z,3.33
2024-01-19T03:53:59.198Z,3.20
2024-01-19T03:56:29.260Z,3.17
2024-01-19T03:59:00.817Z,3.30
2024-01-19T04:01:28.887Z,3.28
2024-01-19T04:03:57.120Z,3.70
2024-01-19T04:06:25.897Z,4.18
2024-01-19T04:08:56.002Z,3.63
2024-01-19T04:11:24.881Z,3.10
2024-01-19T04:13:53.003Z,3.60
2024-01-19T04:16:21.162Z,3.45
2024-01-19T04:18:49.573Z,3.58
2024-01-19T04:21:17.780Z,3.60
2024-01-19T04:23:46.851Z,3.45
2024-01-19T04:26:16.763Z,3.97
2024-01-19T04:28:44.847Z,4.32
2024-01-19T04:31:13.921Z,4.13
2024-01-19T04:33:42.348Z,3.13
2024-01-19T04:36:12.267Z,4.20
2024-01-19T04:38:41.234Z,3.80
2024-01-19T04:41:09.613Z,3.53
2024-01-19T04:43:39.712Z,4.40
2024-01-19T04:46:08.268Z,4.03
2024-01-19T04:48:36.814Z,5.30
2024-01-19T04:51:06.454Z,5.43
2024-01-19T04:53:34.563Z,5.07
2024-01-19T04:56:06.324Z,4.28
2024-01-19T04:58:35.904Z,3.97
2024-01-19T05:01:06.744Z,4.40
2024-01-19T05:03:34.911Z,4.30
2024-01-19T05:06:03.594Z,3.90
2024-01-19T05:08:31.815Z,4.00
2024-01-19T05:11:01.108Z,4.40
2024-01-19T05:13:29.249Z,4.63
2024-01-19T05:15:57.622Z,4.22
2024-01-19T05:18:27.783Z,4.20
2024-01-19T05:20:57.063Z,4.43
2024-01-19T05:23:25.236Z,4.28
2024-01-19T05:25:53.683Z,4.80
2024-01-19T05:28:22.340Z,4.68
2024-01-19T05:30:50.855Z,5.05
2024-01-19T05:33:19.303Z,4.82
2024-01-19T05:35:49.408Z,4.82
2024-01-19T05:38:17.859Z,4.90
2024-01-19T05:40:46.425Z,4.85
2024-01-19T05:43:14.805Z,5.20
2024-01-19T05:45:43.181Z,5.60
2024-01-19T05:48:11.724Z,5.50
2024-01-19T05:50:40.594Z,4.65
2024-01-19T05:53:12.926Z,5.05
2024-01-19T05:55:41.093Z,4.90
2024-01-19T05:58:09.538Z,4.97
2024-01-19T06:00:37.880Z,5.10
2024-01-19T06:03:09.543Z,5.30
2024-01-19T06:05:39.715Z,5.68
2024-01-19T06:08:09.891Z,4.95
2024-01-19T06:10:39.685Z,5.43
2024-01-19T06:13:08.275Z,4.60
2024-01-19T06:15:36.540Z,4.97
2024-01-19T06:18:05.660Z,5.35
2024-01-19T06:20:34.515Z,5.55
2024-01-19T06:23:03.297Z,6.30
2024-01-19T06:25:36.261Z,5.00
2024-01-19T06:28:05.133Z,5.15
2024-01-19T06:30:33.314Z,5.03
2024-01-19T06:33:03.197Z,5.57
2024-01-19T06:35:31.470Z,5.28
2024-01-19T06:37:59.649Z,5.28
2024-01-19T06:40:28.345Z,5.55
2024-01-19T06:43:00.759Z,5.57
2024-01-19T06:45:29.524Z,5.20
2024-01-19T06:47:58.121Z,5.82
2024-01-19T06:50:26.294Z,5.90
2024-01-19T06:52:57.693Z,5.70
2024-01-19T06:55:29.112Z,5.78
2024-01-19T06:57:58.734Z,5.50
2024-01-19T07:00:27.078Z,5.47
2024-01-19T07:02:56.346Z,6.72
2024-01-19T07:05:24.968Z,5.80
2024-01-19T07:07:55.127Z,6.15
2024-01-19T07:10:24.819Z,6.03
2024-01-19T07:12:53.726Z,5.93
2024-01-19T07:15:23.677Z,6.70
2024-01-19T07:17:52.507Z,6.13
2024-01-19T07:20:20.658Z,5.75
2024-01-19T07:22:50.253Z,6.40
2024-01-19T07:25:21.229Z,7.00
2024-01-19T07:27:49.709Z,5.85
2024-01-19T07:30:17.931Z,6.65
2024-01-19T07:32:56.879Z,5.93
2024-01-19T07:35:33.587Z,6.20
2024-01-19T07:38:05.408Z,6.25
2024-01-19T07:40:34.000Z,6.03
2024-01-19T07:43:03.727Z,6.13
2024-01-19T07:45:32.033Z,6.57
2024-01-19T07:48:04.221Z,5.68
2024-01-19T07:53:01.085Z,5.82
2024-01-19T07:55:29.212Z,5.20
2024-01-19T07:57:57.665Z,6.35
2024-01-19T08:00:27.421Z,6.00
2024-01-19T08:02:56.768Z,5.70
2024-01-19T08:05:26.897Z,5.72
2024-01-19T08:07:56.376Z,5.75
2024-01-19T08:10:24.883Z,5.07
2024-01-19T08:12:53.288Z,5.78
2024-01-19T08:15:22.379Z,5.65
2024-01-19T08:17:50.550Z,5.43
2024-01-19T08:20:23.216Z,5.85
2024-01-19T08:22:55.189Z,6.65
2024-01-19T08:25:24.167Z,5.95
2024-01-19T08:27:53.525Z,5.18
2024-01-19T08:30:22.704Z,6.07
2024-01-19T08:32:51.210Z,5.93
2024-01-19T08:35:19.853Z,6.15
2024-01-19T08:37:48.160Z,6.97
2024-01-19T08:40:19.732Z,6.55
2024-01-19T08:42:50.420Z,7.63
2024-01-19T08:45:18.982Z,9.98
2024-01-19T08:47:49.880Z,6.25
2024-01-19T08:50:20.647Z,5.93
2024-01-19T08:52:49.915Z,6.65
2024-01-19T08:55:19.519Z,6.25
2024-01-19T08:57:49.897Z,7.20
2024-01-19T09:00:19.089Z,6.72
2024-01-19T09:02:57.129Z,7.05
2024-01-19T09:05:31.928Z,6.30
2024-01-19T09:08:01.360Z,6.50
2024-01-19T09:10:35.514Z,7.53
2024-01-19T09:13:04.072Z,6.30
2024-01-19T09:15:32.172Z,5.90
2024-01-19T09:18:00.576Z,7.20
2024-01-19T09:20:28.959Z,7.00
2024-01-19T09:22:57.190Z,7.40
2024-01-19T09:25:25.937Z,6.75
2024-01-19T09:27:57.981Z,7.15
2024-01-19T09:30:28.067Z,7.25
2024-01-19T09:32:56.392Z,7.80
2024-01-19T09:35:25.246Z,7.70
2024-01-19T09:37:55.569Z,6.75
2024-01-19T09:41:36.669Z,7.40
2024-01-19T09:44:09.808Z,7.15
2024-01-19T09:46:49.593Z,7.32
2024-01-19T09:49:28.311Z,6.95
2024-01-19T09:51:59.120Z,7.93
2024-01-19T09:54:33.693Z,7.55
2024-01-19T09:57:02.423Z,7.35
2024-01-19T09:59:34.286Z,6.90
2024-01-19T10:02:04.652Z,8.02
2024-01-19T10:04:33.517Z,7.90
2024-01-19T10:07:03.082Z,7.25
2024-01-19T10:09:33.120Z,7.35
2024-01-19T10:12:02.021Z,7.68
2024-01-19T10:14:30.082Z,6.32
2024-01-19T10:17:01.481Z,7.45
2024-01-19T10:19:30.466Z,7.38
2024-01-19T10:22:00.427Z,6.85
2024-01-19T10:24:28.481Z,7.82
2024-01-19T10:26:57.490Z,6.97
2024-01-19T10:29:25.963Z,7.40
2024-01-19T10:31:55.063Z,7.00
2024-01-19T10:34:27.769Z,7.03
2024-01-19T10:36:55.822Z,7.85
2024-01-19T10:39:25.325Z,7.18
2024-01-19T10:42:05.003Z,6.55
2024-01-19T10:44:33.416Z,7.53
2024-01-19T10:47:01.789Z,7.00
2024-01-19T10:49:31.111Z,7.50
2024-01-19T10:51:58.585Z,7.88
2024-01-19T10:54:26.999Z,7.72
2024-01-19T10:57:05.072Z,7.22
2024-01-19T10:59:33.452Z,7.13
2024-01-19T11:02:03.597Z,6.95
2024-01-19T11:04:34.987Z,6.90
2024-01-19T11:07:04.891Z,7.75
2024-01-19T11:09:33.038Z,6.93
2024-01-19T11:12:04.281Z,7.50
2024-01-19T11:14:35.222Z,7.57
2024-01-19T11:17:03.237Z,6.97
2024-01-19T11:19:33.228Z,7.53
2024-01-19T11:22:01.759Z,7.50
2024-01-19T11:24:34.780Z,8.43
2024-01-19T11:27:11.287Z,7.30
2024-01-19T11:29:44.127Z,7.88
2024-01-19T11:32:15.301Z,7.78
2024-01-19T11:34:51.500Z,7.45
2024-01-19T11:37:43.059Z,8.02
2024-01-19T11:40:11.531Z,8.02
2024-01-19T11:42:47.219Z,8.23
2024-01-19T11:45:41.094Z,8.15
2024-01-19T11:48:09.634Z,7.78
2024-01-19T11:50:51.108Z,8.18
2024-01-19T11:53:19.363Z,8.20
2024-01-19T11:55:51.803Z,8.00
2024-01-19T11:58:33.544Z,7.60
2024-01-19T12:01:03.934Z,5.57
2024-01-19T12:03:32.425Z,7.97
2024-01-19T12:06:07.201Z,8.63
2024-01-19T12:08:35.786Z,8.23
2024-01-19T12:11:06.152Z,8.13
2024-01-19T12:13:34.842Z,7.63
2024-01-19T12:16:04.277Z,7.88
2024-01-19T12:18:33.094Z,8.55
2024-01-19T12:21:02.966Z,8.25
2024-01-19T12:23:34.063Z,8.95
2024-01-19T12:26:04.778Z,8.40
2024-01-19T12:28:34.895Z,8.57
2024-01-19T12:31:03.174Z,8.77
2024-01-19T12:33:32.665Z,8.25
2024-01-19T12:36:12.290Z,7.78
2024-01-19T12:38:42.216Z,7.10
2024-01-19T12:41:17.210Z,7.10
2024-01-19T12:43:45.617Z,7.28
2024-01-19T12:46:18.778Z,7.75
2024-01-19T12:48:59.022Z,6.93
2024-01-19T12:51:28.532Z,7.38
2024-01-19T12:53:57.487Z,7.97
2024-01-19T12:56:28.600Z,7.30
2024-01-19T12:59:08.111Z,6.60
2024-01-19T13:01:37.217Z,7.38
2024-01-19T13:04:05.754Z,8.43
2024-01-19T13:06:41.453Z,6.72
2024-01-19T13:09:10.625Z,6.97
2024-01-19T13:11:38.707Z,8.07
2024-01-19T13:14:08.680Z,7.20
2024-01-19T13:16:54.567Z,6.90
2024-01-19T13:19:23.072Z,7.47
2024-01-19T13:21:57.983Z,7.53
2024-01-19T13:24:30.130Z,11.13
2024-01-19T13:27:02.340Z,10.70
2024-01-19T13:31:59.492Z,7.78
2024-01-19T13:34:29.784Z,6.70
2024-01-19T13:36:59.661Z,6.53
2024-01-19T13:59:50.069Z,5.82
2024-01-19T14:04:55.512Z,6.30
2024-01-19T14:07:24.036Z,5.53
2024-01-19T14:09:52.439Z,5.75
2024-01-19T14:12:29.786Z,5.93
2024-01-19T14:15:01.792Z,5.97
2024-01-19T14:17:37.420Z,6.88
2024-01-19T14:20:07.853Z,6.60
2024-01-19T14:22:36.348Z,5.95
2024-01-19T14:25:04.520Z,6.53
2024-01-19T14:27:33.093Z,8.35
2024-01-19T14:30:03.455Z,6.88
2024-01-19T14:32:32.830Z,6.25
2024-01-19T14:35:02.346Z,6.38
2024-01-19T14:37:30.498Z,7.00
2024-01-19T14:39:58.497Z,6.82
2024-01-19T14:42:26.853Z,6.35
2024-01-19T14:44:54.966Z,6.32
2024-01-19T14:47:25.989Z,6.72
2024-01-19T14:49:54.536Z,5.70
2024-01-19T14:52:23.607Z,5.93
2024-01-19T14:54:59.717Z,5.32
2024-01-19T14:57:28.022Z,6.28
2024-01-19T14:59:56.287Z,5.85
2024-01-19T15:02:25.953Z,5.63
2024-01-19T15:04:54.862Z,5.53
2024-01-19T15:07:49.006Z,6.38
2024-01-19T15:10:21.299Z,6.55
2024-01-19T15:15:23.657Z,6.00
2024-01-19T15:17:53.149Z,6.97
2024-01-19T15:20:23.678Z,7.13
2024-01-19T15:22:52.011Z,7.35
2024-01-19T15:25:20.241Z,7.22
2024-01-19T15:27:48.716Z,6.88
2024-01-19T15:30:23.642Z,6.50
2024-01-19T15:32:59.241Z,6.07
2024-01-19T15:35:27.601Z,6.30
2024-01-19T15:37:55.848Z,6.10
2024-01-19T15:40:24.080Z,6.25
2024-01-19T15:42:53.735Z,6.88
2024-01-19T15:45:22.227Z,7.10
2024-01-19T15:47:53.354Z,7.47
2024-01-19T15:50:25.386Z,6.82
2024-01-19T15:52:55.827Z,6.88
2024-01-19T15:55:27.646Z,7.32
2024-01-19T15:57:56.337Z,7.72
2024-01-19T16:00:24.309Z,8.35
2024-01-19T16:02:52.355Z,8.80
2024-01-19T16:05:27.589Z,9.13
2024-01-19T16:08:06.469Z,9.23
2024-01-19T16:10:36.896Z,8.60
2024-01-19T16:13:15.951Z,7.95
2024-01-19T16:15:44.443Z,8.88
2024-01-19T16:18:13.803Z,9.90
2024-01-19T16:20:45.679Z,9.18
2024-01-19T16:23:13.779Z,9.43
2024-01-19T16:25:42.606Z,9.38
2024-01-19T16:28:14.036Z,9.35
2024-01-19T16:30:42.522Z,9.32
2024-01-19T16:33:11.541Z,10.60
2024-01-19T16:35:39.954Z,10.00
2024-01-19T16:38:09.426Z,8.70
2024-01-19T16:40:37.412Z,10.45
2024-01-19T16:43:06.955Z,10.07
2024-01-19T16:45:34.890Z,11.05
2024-01-19T16:48:03.626Z,8.90
2024-01-19T16:50:35.165Z,9.40
2024-01-19T16:53:03.636Z,10.38
2024-01-19T16:55:32.970Z,9.30
2024-01-19T16:58:01.131Z,9.55
2024-01-19T17:00:29.424Z,9.05
2024-01-19T17:02:57.515Z,9.30
2024-01-19T17:05:25.712Z,11.27
2024-01-19T17:07:54.104Z,10.13
2024-01-19T17:10:22.158Z,10.60
2024-01-19T17:12:51.506Z,11.35
2024-01-19T17:15:19.553Z,10.70
2024-01-19T17:17:49.244Z,11.75
2024-01-19T17:20:17.755Z,11.77
2024-01-19T17:22:47.943Z,10.88
2024-01-19T17:25:16.643Z,11.77
2024-01-19T17:27:44.770Z,12.65
2024-01-19T17:30:20.597Z,12.27
2024-01-19T17:32:49.490Z,11.65
2024-01-19T17:35:17.889Z,11.23
2024-01-19T17:37:46.082Z,11.52
2024-01-19T17:40:14.261Z,11.45
2024-01-19T17:42:47.586Z,12.45
2024-01-19T17:45:55.605Z,14.80
2024-01-19T17:48:18.308Z,12.85
2024-01-19T17:53:21.880Z,10.68
2024-01-19T17:55:51.471Z,11.85
2024-01-19T17:58:22.071Z,11.68
2024-01-19T18:00:50.650Z,10.77
2024-01-19T18:03:18.654Z,12.43
2024-01-19T18:05:46.645Z,10.48
2024-01-19T18:08:14.791Z,10.13
2024-01-19T18:10:44.324Z,10.35
2024-01-19T18:13:13.365Z,10.73
2024-01-19T18:15:41.420Z,14.00
2024-01-19T18:18:21.062Z,13.73
2024-01-19T18:20:57.772Z,12.35
2024-01-19T18:24:05.954Z,11.48
2024-01-19T18:26:35.962Z,12.27
2024-01-19T18:29:05.867Z,11.27
2024-01-19T18:31:36.234Z,11.55
2024-01-19T18:34:10.383Z,11.43
2024-01-19T18:36:54.983Z,12.55
2024-01-19T18:39:23.157Z,10.95
2024-01-19T18:41:57.416Z,10.63
2024-01-19T18:44:28.906Z,10.55
2024-01-19T18:46:58.326Z,10.32
2024-01-19T18:49:45.116Z,12.30
2024-01-19T18:52:23.270Z,10.63
2024-01-19T18:54:51.828Z,10.95
2024-01-19T18:57:20.003Z,10.55
2024-01-19T18:59:48.811Z,11.95
2024-01-19T19:02:17.741Z,11.25
2024-01-19T19:04:47.776Z,10.82
2024-01-19T19:07:16.109Z,11.85
2024-01-19T19:09:44.298Z,10.90
2024-01-19T19:12:13.068Z,10.68
2024-01-19T19:14:41.847Z,11.32
2024-01-19T19:17:11.933Z,11.35
2024-01-19T19:19:40.190Z,11.10
2024-01-19T19:22:21.197Z,12.35
2024-01-19T19:24:49.313Z,12.77
2024-01-19T19:27:18.409Z,12.15
2024-01-19T19:29:46.512Z,12.15
2024-01-19T19:32:16.732Z,12.25
2024-01-19T19:34:46.795Z,11.55
2024-01-19T19:37:16.805Z,12.18
2024-01-19T19:39:44.862Z,11.27
2024-01-19T19:42:12.790Z,11.90
2024-01-19T19:44:40.673Z,11.50
2024-01-19T19:47:08.897Z,13.05
2024-01-19T19:49:38.553Z,14.35
2024-01-19T19:52:08.636Z,13.70
2024-01-19T19:54:41.028Z,13.02
2024-01-19T19:57:10.135Z,13.27
2024-01-19T19:59:39.141Z,13.20
2024-01-19T20:02:08.448Z,12.70
2024-01-19T20:04:36.427Z,13.70
2024-01-19T20:07:05.135Z,14.25
2024-01-19T20:09:35.263Z,14.73
2024-01-19T20:12:05.264Z,12.95
2024-01-19T20:14:35.927Z,14.68
2024-01-19T20:17:08.040Z,15.05
2024-01-19T20:19:36.239Z,15.23
2024-01-19T20:22:04.497Z,14.05
2024-01-19T20:24:32.395Z,13.45
2024-01-19T20:27:00.321Z,12.90
2024-01-19T20:29:38.511Z,12.88
2024-01-19T20:32:07.041Z,14.82
2024-01-19T20:34:37.445Z,12.77
2024-01-19T20:37:05.711Z,12.10
2024-01-19T20:39:33.742Z,13.30
2024-01-19T20:42:03.580Z,13.82
2024-01-19T20:44:33.175Z,12.93
2024-01-19T20:47:01.410Z,12.63
2024-01-19T20:49:35.507Z,12.50
2024-01-19T20:52:05.905Z,14.05
2024-01-19T20:54:36.348Z,13.43
2024-01-19T20:57:07.060Z,13.50
2024-01-19T20:59:37.452Z,13.07
2024-01-19T21:02:08.322Z,12.70
2024-01-19T21:04:40.022Z,13.13
2024-01-19T21:07:12.264Z,13.93
2024-01-19T21:09:44.244Z,13.50
2024-01-19T21:12:13.929Z,13.13
2024-01-19T21:14:44.644Z,13.18
2024-01-19T21:17:13.668Z,14.43
2024-01-19T21:19:42.184Z,13.65
2024-01-19T21:22:13.022Z,12.32
2024-01-19T21:24:41.012Z,13.32
2024-01-19T21:27:16.802Z,13.27
2024-01-19T21:29:49.511Z,12.82
2024-01-19T21:32:17.637Z,12.80
2024-01-19T21:34:45.964Z,11.88
2024-01-19T21:37:14.467Z,12.48
2024-01-19T21:39:42.830Z,13.45
2024-01-19T21:42:13.694Z,14.03
2024-01-19T21:44:45.502Z,14.48
2024-01-19T21:47:15.290Z,13.85
2024-01-19T21:49:44.094Z,13.68
2024-01-19T21:52:12.214Z,12.85
2024-01-19T21:54:40.190Z,13.20
2024-01-19T21:57:08.834Z,12.13
2024-01-19T21:59:36.834Z,11.65
2024-01-19T22:02:06.541Z,11.75
2024-01-19T22:04:36.387Z,11.15
2024-01-19T22:07:06.877Z,11.77
2024-01-19T22:09:39.945Z,13.13
2024-01-19T22:12:12.790Z,12.63
2024-01-19T22:14:41.160Z,12.85
2024-01-19T22:17:10.310Z,13.30
2024-01-19T22:19:39.662Z,12.32
2024-01-19T22:22:07.803Z,12.45
2024-01-19T22:24:36.061Z,13.07
2024-01-19T22:27:04.435Z,12.35
2024-01-19T22:29:33.520Z,13.15
2024-01-19T22:32:01.956Z,12.02
2024-01-19T22:34:31.190Z,11.27
2024-01-19T22:37:03.460Z,13.38
2024-01-19T22:39:34.231Z,12.05
2024-01-19T22:42:02.231Z,11.70
2024-01-19T22:44:31.594Z,12.27
2024-01-19T22:47:00.190Z,11.43
2024-01-19T22:49:28.534Z,11.07
2024-01-19T22:51:58.186Z,11.52
2024-01-19T22:54:29.094Z,11.50
2024-01-19T22:56:57.643Z,11.40
2024-01-19T22:59:25.931Z,12.90
2024-01-19T23:01:54.458Z,11.95
2024-01-19T23:04:30.524Z,13.00
2024-01-19T23:06:58.527Z,11.95
2024-01-19T23:09:28.091Z,12.85
2024-01-19T23:11:57.193Z,12.55
2024-01-19T23:14:27.733Z,12.93
2024-01-19T23:16:56.572Z,11.68
2024-01-19T23:19:28.460Z,11.48
2024-01-19T23:24:25.169Z,12.00
2024-01-19T23:26:56.352Z,11.57
2024-01-19T23:29:25.052Z,9.45
2024-01-19T23:31:54.041Z,10.45
2024-01-19T23:34:22.741Z,10.90
2024-01-19T23:36:50.970Z,10.85
2024-01-19T23:39:21.542Z,10.13
2024-01-19T23:41:50.330Z,9.68
2024-01-19T23:44:20.170Z,9.60
2024-01-19T23:46:48.548Z,9.95
2024-01-19T23:49:17.361Z,9.45
2024-01-19T23:51:45.730Z,10.35
2024-01-19T23:54:14.997Z,8.80
2024-01-19T23:56:42.948Z,8.43
2024-01-19T23:59:12.194Z,8.70
